Time;durP1;ratioP1;P1;durP2;ratioP2;P2;SDS_P1;SDS_P2;PMS_P1;PMS_P2;Temp;Humidity;BMP_temperature;BMP_pressure;BME280_temperature;BME280_humidity;BME280_pressure;Samples;Min_cycle;Max_cycle;Signal;HPM_P1;HPM_P2
2023/01/01 00:02:07;;;;;;;;;;;;;;;17.85;100.00;98332.66;5070225;28;19943;-39
2023/01/01 00:04:33;;;;;;;;;;;;;;;17.87;100.00;98338.59;5071363;28;19927;-39
2023/01/01 00:06:58;;;;;;;;;;;;;;;17.24;100.00;98347.41;5069036;28;19922;-39
2023/01/01 00:12:08;;;;;;;;;;;;;;;17.73;100.00;98338.75;5070574;28;20467;-39
2023/01/01 00:14:33;;;;;;;;;;;;;;;17.36;100.00;98330.97;5072111;28;19921;-39
2023/01/01 00:16:58;;;;;;;;;;;;;;;17.72;100.00;98363.09;5074388;28;20491;-39
2023/01/01 00:19:23;;;;;;;;;;;;;;;17.71;100.00;98371.88;5074938;28;20024;-39
2023/01/01 00:21:49;;;;;;;;;;;;;;;17.90;100.00;98361.84;5073047;28;19949;-39
2023/01/01 00:24:14;;;;;;;;;;;;;;;17.69;100.00;98360.72;5075565;28;20381;-39
2023/01/01 00:26:39;;;;;;;;;;;;;;;17.88;100.00;98348.09;5076264;28;19920;-39
2023/01/01 00:29:04;;;;;;;;;;;;;;;17.74;100.00;98369.91;5074114;28;20388;-39
2023/01/01 00:31:30;;;;;;;;;;;;;;;17.48;100.00;98371.72;5073562;28;20433;-39
2023/01/01 00:33:55;;;;;;;;;;;;;;;17.90;100.00;98366.19;5073718;28;20322;-39
2023/01/01 00:36:21;;;;;;;;;;;;;;;17.53;100.00;98356.59;5071068;28;19916;-39
2023/01/01 00:38:46;;;;;;;;;;;;;;;17.54;100.00;98370.47;5070956;28;20357;-39
2023/01/01 00:41:12;;;;;;;;;;;;;;;17.53;100.00;98356.59;5074334;28;20003;-39
2023/01/01 00:43:37;;;;;;;;;;;;;;;17.62;100.00;98351.69;5074265;28;19969;-39
2023/01/01 00:46:03;;;;;;;;;;;;;;;17.74;100.00;98374.25;5072781;28;20315;-39
2023/01/01 00:48:29;;;;;;;;;;;;;;;17.62;100.00;98359.50;5071838;28;19920;-39
2023/01/01 00:50:54;;;;;;;;;;;;;;;17.63;100.00;98337.72;5072733;28;19920;-39
2023/01/01 00:53:20;;;;;;;;;;;;;;;17.62;100.00;98352.53;5073335;28;19967;-39
2023/01/01 00:55:46;;;;;;;;;;;;;;;17.51;100.00;98334.22;5072957;28;19916;-39
2023/01/01 00:58:11;;;;;;;;;;;;;;;17.58;100.00;98335.44;5071910;28;19927;-40
2023/01/01 01:00:36;;;;;;;;;;;;;;;17.68;100.00;98333.03;5071208;28;19920;-39
2023/01/01 01:03:02;;;;;;;;;;;;;;;17.95;100.00;98323.25;5072140;28;19924;-39
2023/01/01 01:05:27;;;;;;;;;;;;;;;17.57;100.00;98344.22;5074247;28;19974;-39
2023/01/01 01:07:52;;;;;;;;;;;;;;;17.58;100.00;98326.81;5070976;28;19928;-39
2023/01/01 01:10:20;;;;;;;;;;;;;;;17.72;100.00;98311.03;5071600;28;19916;-39
2023/01/01 01:12:45;;;;;;;;;;;;;;;17.68;100.00;98322.63;5071056;28;19924;-39
2023/01/01 01:15:10;;;;;;;;;;;;;;;17.52;100.00;98335.91;5072879;28;19942;-39
2023/01/01 01:17:36;;;;;;;;;;;;;;;17.54;100.00;98329.66;5073285;28;19998;-39
2023/01/01 01:20:01;;;;;;;;;;;;;;;17.77;100.00;98319.38;5073554;28;20018;-39
2023/01/01 01:22:26;;;;;;;;;;;;;;;17.21;100.00;98327.66;5073169;28;19969;-39
2023/01/01 01:24:51;;;;;;;;;;;;;;;17.20;100.00;98335.59;5074257;28;20106;-39
2023/01/01 01:27:16;;;;;;;;;;;;;;;16.91;100.00;98328.84;5071748;28;19919;-39
2023/01/01 01:29:42;;;;;;;;;;;;;;;17.35;100.00;98326.69;5073500;28;19923;-39
2023/01/01 01:32:07;;;;;;;;;;;;;;;17.54;100.00;98329.66;5072057;28;19942;-39
2023/01/01 01:34:32;;;;;;;;;;;;;;;17.22;100.00;98338.88;5072167;28;19982;-39
2023/01/01 01:36:57;;;;;;;;;;;;;;;17.32;100.00;98340.75;5074961;28;19920;-39
2023/01/01 01:39:23;;;;;;;;;;;;;;;17.22;100.00;98318.06;5070433;28;19916;-39
2023/01/01 01:41:48;;;;;;;;;;;;;;;17.14;100.00;98332.44;5073407;28;20547;-39
2023/01/01 01:44:32;;;;;;;;;;;;;;;17.25;100.00;98343.91;5071980;28;20316;-39
2023/01/01 01:46:57;;;;;;;;;;;;;;;17.03;100.00;98353.16;5073145;28;19939;-39
2023/01/01 01:49:26;;;;;;;;;;;;;;;17.71;100.00;98346.66;5072384;28;20370;-39
2023/01/01 01:51:52;;;;;;;;;;;;;;;17.53;100.00;98354.00;5074116;28;19930;-39
2023/01/01 01:54:18;;;;;;;;;;;;;;;17.44;100.00;98362.47;5071043;28;19920;-39
2023/01/01 01:56:49;;;;;;;;;;;;;;;17.34;100.00;98374.47;5072486;28;19952;-39
2023/01/01 01:59:14;;;;;;;;;;;;;;;17.12;100.00;98375.94;5067659;28;19920;-39
2023/01/01 02:01:40;;;;;;;;;;;;;;;17.80;100.00;98370.41;5072313;28;19916;-39
2023/01/01 02:04:06;;;;;;;;;;;;;;;17.60;100.00;98385.66;5070482;28;19923;-39
2023/01/01 02:06:31;;;;;;;;;;;;;;;17.54;100.00;98399.94;5070580;28;19920;-39
2023/01/01 02:08:58;;;;;;;;;;;;;;;17.22;100.00;98385.72;5069619;28;19916;-39
2023/01/01 02:11:23;;;;;;;;;;;;;;;17.46;100.00;98394.44;5068172;28;20602;-39
2023/01/01 02:13:48;;;;;;;;;;;;;;;17.48;100.00;98387.34;5072549;28;19923;-39
2023/01/01 02:16:14;;;;;;;;;;;;;;;16.86;100.00;98405.53;5071969;28;19920;-39
2023/01/01 02:18:42;;;;;;;;;;;;;;;17.62;100.00;98411.59;5070626;28;20476;-39
2023/01/01 02:21:10;;;;;;;;;;;;;;;17.50;100.00;98380.28;5070850;28;19942;-39
2023/01/01 02:23:53;;;;;;;;;;;;;;;17.04;100.00;98409.47;5069008;28;19959;-39
2023/01/01 02:26:25;;;;;;;;;;;;;;;17.09;100.00;98422.19;5071682;28;20355;-39
2023/01/01 02:28:59;;;;;;;;;;;;;;;17.02;100.00;98416.56;5068667;28;19943;-39
2023/01/01 02:31:25;;;;;;;;;;;;;;;16.56;100.00;98435.19;5068799;28;19993;-39
2023/01/01 02:33:51;;;;;;;;;;;;;;;16.54;100.00;98412.84;5067157;28;19920;-39
2023/01/01 02:36:16;;;;;;;;;;;;;;;16.52;100.00;98424.16;5067538;28;20358;-39
2023/01/01 02:38:43;;;;;;;;;;;;;;;16.92;100.00;98418.09;5069610;28;19919;-39
2023/01/01 02:41:13;;;;;;;;;;;;;;;16.66;100.00;98418.03;5069847;28;19924;-39
2023/01/01 02:43:38;;;;;;;;;;;;;;;16.87;100.00;98405.41;5070608;28;19928;-39
2023/01/01 02:46:07;;;;;;;;;;;;;;;17.02;100.00;98406.16;5072358;28;19954;-39
2023/01/01 02:48:37;;;;;;;;;;;;;;;16.83;100.00;98395.31;5071868;28;19968;-39
2023/01/01 02:51:03;;;;;;;;;;;;;;;16.41;100.00;98410.19;5074557;28;19959;-39
2023/01/01 02:53:32;;;;;;;;;;;;;;;16.88;100.00;98414.06;5069755;28;19928;-39
2023/01/01 02:56:01;;;;;;;;;;;;;;;16.84;100.00;98397.00;5069686;28;20358;-39
2023/01/01 03:01:20;;;;;;;;;;;;;;;16.50;100.00;98410.41;5070078;28;19927;-39
2023/01/01 03:03:57;;;;;;;;;;;;;;;16.65;100.00;98408.59;5071088;28;19920;-39
2023/01/01 03:06:22;;;;;;;;;;;;;;;17.08;100.00;98392.72;5070270;28;19931;-40
2023/01/01 03:09:06;;;;;;;;;;;;;;;16.80;100.00;98379.91;5069825;28;20527;-39
2023/01/01 03:11:34;;;;;;;;;;;;;;;16.77;100.00;98380.94;5069658;28;19921;-39
2023/01/01 03:14:12;;;;;;;;;;;;;;;16.21;100.00;98404.53;5070286;28;19973;-39
2023/01/01 03:16:43;;;;;;;;;;;;;;;17.02;100.00;98380.13;5069748;28;19915;-39
2023/01/01 03:19:18;;;;;;;;;;;;;;;16.59;100.00;98377.78;5072527;28;19916;-39
2023/01/01 03:21:50;;;;;;;;;;;;;;;16.59;100.00;98372.59;5068978;28;20556;-39
2023/01/01 03:24:22;;;;;;;;;;;;;;;16.82;100.00;98376.28;5070011;28;20038;-39
2023/01/01 03:26:47;;;;;;;;;;;;;;;16.54;100.00;98387.69;5069550;28;19942;-39
2023/01/01 03:29:13;;;;;;;;;;;;;;;16.34;100.00;98396.78;5068318;28;20377;-39
2023/01/01 03:31:39;;;;;;;;;;;;;;;16.76;100.00;98381.03;5071019;28;20031;-39
2023/01/01 03:34:05;;;;;;;;;;;;;;;16.80;100.00;98390.31;5070563;28;20526;-39
2023/01/01 03:36:37;;;;;;;;;;;;;;;16.47;100.00;98389.00;5069424;28;19920;-39
2023/01/01 03:39:07;;;;;;;;;;;;;;;16.69;100.00;98389.25;5070264;28;19920;-39
2023/01/01 03:41:37;;;;;;;;;;;;;;;16.64;100.00;98390.47;5069936;28;20334;-39
2023/01/01 03:44:17;;;;;;;;;;;;;;;16.57;100.00;98408.25;5069715;28;19956;-39
2023/01/01 03:46:43;;;;;;;;;;;;;;;17.04;100.00;98413.84;5068578;28;19928;-39
2023/01/01 03:49:09;;;;;;;;;;;;;;;16.83;100.00;98395.31;5069667;28;19915;-40
2023/01/01 03:51:38;;;;;;;;;;;;;;;16.71;100.00;98402.97;5067933;28;20464;-39
2023/01/01 03:54:07;;;;;;;;;;;;;;;16.51;100.00;98396.50;5068184;28;19924;-39
2023/01/01 03:56:46;;;;;;;;;;;;;;;16.70;100.00;98422.13;5068797;28;19931;-39
2023/01/01 03:59:14;;;;;;;;;;;;;;;16.80;100.00;98392.91;5068155;28;20015;-39
2023/01/01 04:01:40;;;;;;;;;;;;;;;16.98;100.00;98403.84;5071187;28;20010;-39
2023/01/01 04:04:06;;;;;;;;;;;;;;;16.39;100.00;98388.69;5052413;28;19920;-39
2023/01/01 04:06:31;;;;;;;;;;;;;;;16.77;100.00;98395.72;5068578;28;19927;-39
2023/01/01 04:08:57;;;;;;;;;;;;;;;16.18;100.00;98402.13;5069328;28;19920;-39
2023/01/01 04:14:07;;;;;;;;;;;;;;;16.46;100.00;98410.72;5068756;28;20038;-39
2023/01/01 04:16:32;;;;;;;;;;;;;;;16.40;100.00;98419.78;5070520;28;20011;-39
2023/01/01 04:18:58;;;;;;;;;;;;;;;16.44;100.00;98441.19;5069849;28;19963;-39
2023/01/01 04:21:23;;;;;;;;;;;;;;;16.40;100.00;98426.72;5069995;28;19955;-39
2023/01/01 04:23:48;;;;;;;;;;;;;;;16.61;100.00;98422.72;5070544;28;20010;-39
2023/01/01 04:26:13;;;;;;;;;;;;;;;16.70;100.00;98432.50;5070887;28;19931;-39
2023/01/01 04:28:40;;;;;;;;;;;;;;;16.78;100.00;98419.00;5066183;28;19920;-39
2023/01/01 04:31:05;;;;;;;;;;;;;;;16.66;100.00;98415.44;5070523;28;20319;-39
2023/01/01 04:33:31;;;;;;;;;;;;;;;16.89;100.00;98420.91;5066502;28;20005;-39
2023/01/01 04:36:01;;;;;;;;;;;;;;;16.86;100.00;98434.13;5069187;28;19916;-39
2023/01/01 04:38:26;;;;;;;;;;;;;;;16.68;100.00;98433.56;5070361;28;19931;-39
2023/01/01 04:40:58;;;;;;;;;;;;;;;16.96;100.00;98437.75;5072009;28;21071;-39
2023/01/01 04:43:23;;;;;;;;;;;;;;;16.78;100.00;98438.97;5072864;28;19960;-39
2023/01/01 04:45:58;;;;;;;;;;;;;;;16.47;100.00;98460.00;5069296;28;19963;-39
2023/01/01 04:48:24;;;;;;;;;;;;;;;16.72;100.00;98448.84;5068849;28;19920;-39
2023/01/01 04:50:52;;;;;;;;;;;;;;;17.01;100.00;98461.69;5069303;28;19993;-39
2023/01/01 04:53:18;;;;;;;;;;;;;;;16.86;100.00;98457.53;5071305;28;19924;-40
2023/01/01 04:55:43;;;;;;;;;;;;;;;16.91;100.00;98471.88;5069904;28;19916;-39
2023/01/01 04:58:08;;;;;;;;;;;;;;;16.08;100.00;98472.03;5066751;28;19926;-39
2023/01/01 05:00:33;;;;;;;;;;;;;;;16.66;100.00;98462.25;5069630;28;19924;-40
2023/01/01 05:02:59;;;;;;;;;;;;;;;16.83;100.00;98461.19;5072692;28;20007;-40
2023/01/01 05:05:24;;;;;;;;;;;;;;;16.55;100.00;98463.88;5072999;28;19915;-40
2023/01/01 05:07:49;;;;;;;;;;;;;;;16.81;100.00;98475.19;5072966;28;20023;-39
2023/01/01 05:10:15;;;;;;;;;;;;;;;16.53;100.00;98461.38;5073466;28;19920;-39
2023/01/01 05:12:40;;;;;;;;;;;;;;;16.80;100.00;98468.34;5071602;28;19924;-39
2023/01/01 05:15:05;;;;;;;;;;;;;;;16.78;100.00;98472.78;5072841;28;20983;-39
2023/01/01 05:17:31;;;;;;;;;;;;;;;16.96;100.00;98479.38;5073570;28;19920;-39
2023/01/01 05:19:56;;;;;;;;;;;;;;;16.90;100.00;98465.03;5073355;28;19970;-39
2023/01/01 05:22:21;;;;;;;;;;;;;;;17.15;100.00;98463.38;5073247;28;19920;-39
2023/01/01 05:24:46;;;;;;;;;;;;;;;16.95;100.00;98469.09;5072833;28;20444;-39
2023/01/01 05:27:11;;;;;;;;;;;;;;;16.93;100.00;98500.41;5073230;28;20435;-39
2023/01/01 05:29:37;;;;;;;;;;;;;;;16.81;100.00;98488.19;5073590;28;20361;-39
2023/01/01 05:32:02;;;;;;;;;;;;;;;16.85;100.00;98497.47;5070649;28;20620;-39
2023/01/01 05:34:27;;;;;;;;;;;;;;;17.06;100.00;98490.84;5072824;28;19916;-39
2023/01/01 05:36:52;;;;;;;;;;;;;;;17.04;100.00;98487.53;5076004;28;19920;-39
2023/01/01 05:39:18;;;;;;;;;;;;;;;16.74;100.00;98495.56;5070750;28;20676;-39
2023/01/01 05:41:43;;;;;;;;;;;;;;;16.62;100.00;98517.97;5074734;28;20966;-39
2023/01/01 05:44:09;;;;;;;;;;;;;;;16.73;100.00;98520.72;5074409;28;20456;-39
2023/01/01 05:46:34;;;;;;;;;;;;;;;16.75;100.00;98507.63;5072831;28;19944;-40
2023/01/01 05:49:00;;;;;;;;;;;;;;;17.20;100.00;98528.97;5072863;28;19916;-39
2023/01/01 05:51:26;;;;;;;;;;;;;;;17.19;100.00;98503.03;5072912;28;19935;-39
2023/01/01 05:53:54;;;;;;;;;;;;;;;17.35;100.00;98509.69;5075795;28;19916;-39
2023/01/01 05:56:20;;;;;;;;;;;;;;;16.89;100.00;98530.16;5077526;28;20289;-39
2023/01/01 05:58:45;;;;;;;;;;;;;;;17.24;100.00;98509.63;5072601;28;19915;-39
2023/01/01 06:01:14;;;;;;;;;;;;;;;17.28;100.00;98531.88;5072507;28;19911;-39
2023/01/01 06:03:39;;;;;;;;;;;;;;;17.00;100.00;98526.84;5074141;28;19913;-39
2023/01/01 06:06:05;;;;;;;;;;;;;;;17.23;100.00;98527.91;5073341;28;20281;-39
2023/01/01 06:08:31;;;;;;;;;;;;;;;17.25;100.00;98520.84;5071376;28;19978;-39
2023/01/01 06:10:57;;;;;;;;;;;;;;;16.99;100.00;98544.22;5071346;28;19920;-39
2023/01/01 06:13:22;;;;;;;;;;;;;;;17.12;100.00;98557.25;5071854;28;20469;-39
2023/01/01 06:15:52;;;;;;;;;;;;;;;17.34;100.00;98543.66;5074664;28;19920;-39
2023/01/01 06:18:17;;;;;;;;;;;;;;;17.08;100.00;98551.44;5069561;28;19924;-39
2023/01/01 06:20:42;;;;;;;;;;;;;;;16.36;100.00;98563.00;5073447;28;19981;-39
2023/01/01 06:23:07;;;;;;;;;;;;;;;17.26;100.00;98554.56;5072600;28;19916;-39
2023/01/01 06:25:33;;;;;;;;;;;;;;;17.12;100.00;98547.66;5072088;28;19920;-39
2023/01/01 06:27:58;;;;;;;;;;;;;;;16.92;100.00;98558.53;5072902;28;19920;-39
2023/01/01 06:30:24;;;;;;;;;;;;;;;16.78;100.00;98574.19;5072000;28;19920;-39
2023/01/01 06:32:49;;;;;;;;;;;;;;;17.11;100.00;98581.63;5073078;28;19920;-39
2023/01/01 06:35:14;;;;;;;;;;;;;;;17.05;100.00;98593.25;5072266;28;19943;-39
2023/01/01 06:37:39;;;;;;;;;;;;;;;16.81;100.00;98600.03;5072281;28;20019;-39
2023/01/01 06:40:05;;;;;;;;;;;;;;;16.22;100.00;98614.06;5073095;28;20369;-39
2023/01/01 06:42:30;;;;;;;;;;;;;;;17.01;100.00;98630.78;5071040;28;20449;-39
2023/01/01 06:44:55;;;;;;;;;;;;;;;16.86;100.00;98631.78;5073459;28;19920;-39
2023/01/01 06:47:21;;;;;;;;;;;;;;;16.62;100.00;98628.94;5074274;28;19973;-39
2023/01/01 06:49:46;;;;;;;;;;;;;;;16.76;100.00;98639.28;5072171;28;19916;-39
2023/01/01 06:52:11;;;;;;;;;;;;;;;17.01;100.00;98638.59;5072022;28;20309;-39
2023/01/01 06:54:36;;;;;;;;;;;;;;;16.84;100.00;98646.66;5071125;28;20254;-39
2023/01/01 06:57:01;;;;;;;;;;;;;;;16.77;100.00;98647.94;5072331;28;20072;-40
2023/01/01 06:59:27;;;;;;;;;;;;;;;16.95;100.00;98639.00;5072427;28;19920;-39
2023/01/01 07:01:52;;;;;;;;;;;;;;;16.84;100.00;98646.66;5072701;28;19925;-39
2023/01/01 07:04:17;;;;;;;;;;;;;;;16.37;100.00;98638.25;5071666;28;19912;-39
2023/01/01 07:06:42;;;;;;;;;;;;;;;16.80;100.00;98634.78;5074086;28;19923;-39
2023/01/01 07:09:08;;;;;;;;;;;;;;;16.62;100.00;98642.75;5071288;28;20020;-39
2023/01/01 07:11:33;;;;;;;;;;;;;;;16.69;100.00;98643.22;5070153;28;19920;-39
2023/01/01 07:13:58;;;;;;;;;;;;;;;16.97;100.00;98647.53;5073234;28;19920;-39
2023/01/01 07:16:24;;;;;;;;;;;;;;;16.48;100.00;98654.00;5071062;28;19980;-39
2023/01/01 07:18:50;;;;;;;;;;;;;;;16.76;100.00;98660.09;5068643;28;20395;-39
2023/01/01 07:21:38;;;;;;;;;;;;;;;16.69;100.00;98659.66;5071118;28;19970;-39
2023/01/01 07:24:04;;;;;;;;;;;;;;;16.57;100.00;98680.38;5065619;28;20030;-39
2023/01/01 07:26:30;;;;;;;;;;;;;;;17.28;100.00;98661.16;5071977;28;20015;-39
2023/01/01 07:28:55;;;;;;;;;;;;;;;16.55;100.00;98667.47;5070606;28;19923;-39
2023/01/01 07:31:20;;;;;;;;;;;;;;;16.56;100.00;98695.16;5072081;28;19912;-39
2023/01/01 07:33:46;;;;;;;;;;;;;;;16.66;100.00;98704.03;5073167;28;20407;-39
2023/01/01 07:36:11;;;;;;;;;;;;;;;16.93;100.00;98695.50;5070882;28;20422;-39
2023/01/01 07:38:36;;;;;;;;;;;;;;;16.86;100.00;98681.22;5070744;28;19920;-39
2023/01/01 07:41:01;;;;;;;;;;;;;;;17.31;100.00;98676.56;5068427;28;19987;-39
2023/01/01 07:43:27;;;;;;;;;;;;;;;17.10;100.00;98687.44;5070898;28;19916;-39
2023/01/01 07:45:52;;;;;;;;;;;;;;;16.63;100.00;98691.25;5070978;28;19924;-39
2023/01/01 07:48:17;;;;;;;;;;;;;;;16.80;100.00;98678.97;5070031;28;19927;-39
2023/01/01 07:50:42;;;;;;;;;;;;;;;17.13;100.00;98689.84;5072297;28;19927;-39
2023/01/01 07:53:08;;;;;;;;;;;;;;;17.04;100.00;98698.25;5070032;28;19917;-39
2023/01/01 07:55:33;;;;;;;;;;;;;;;16.60;100.00;98708.78;5068679;28;20335;-39
2023/01/01 07:57:58;;;;;;;;;;;;;;;16.42;100.00;98718.53;5070167;28;20325;-39
2023/01/01 08:00:23;;;;;;;;;;;;;;;16.61;100.00;98724.28;5067620;28;20277;-39
2023/01/01 08:02:49;;;;;;;;;;;;;;;16.91;100.00;98710.34;5071175;28;19973;-39
2023/01/01 08:05:14;;;;;;;;;;;;;;;17.31;100.00;98685.25;5067839;28;19979;-39
2023/01/01 08:07:39;;;;;;;;;;;;;;;16.61;100.00;98720.88;5068306;28;19920;-39
2023/01/01 08:10:05;;;;;;;;;;;;;;;16.71;100.00;98709.78;5069838;28;19921;-39
2023/01/01 08:12:30;;;;;;;;;;;;;;;16.85;100.00;98718.53;5069303;28;20004;-39
2023/01/01 08:14:55;;;;;;;;;;;;;;;16.80;100.00;98718.00;5071096;28;20723;-39
2023/01/01 08:17:21;;;;;;;;;;;;;;;16.92;100.00;98727.63;5067657;28;19920;-39
2023/01/01 08:19:48;;;;;;;;;;;;;;;16.38;100.00;98749.09;5070902;28;19931;-39
2023/01/01 08:22:13;;;;;;;;;;;;;;;16.87;100.00;98740.91;5070575;28;20394;-39
2023/01/01 08:24:38;;;;;;;;;;;;;;;17.02;100.00;98752.16;5063360;28;19975;-39
2023/01/01 08:27:03;;;;;;;;;;;;;;;17.31;100.00;98757.25;5071068;28;20823;-39
2023/01/01 08:29:29;;;;;;;;;;;;;;;16.95;100.00;98771.66;5067964;28;19916;-39
2023/01/01 08:31:54;;;;;;;;;;;;;;;16.71;100.00;98769.59;5069787;28;19943;-39
2023/01/01 08:34:19;;;;;;;;;;;;;;;17.28;100.00;98766.09;5070631;28;19916;-39
2023/01/01 08:36:44;;;;;;;;;;;;;;;16.79;100.00;98770.91;5072182;28;19920;-39
2023/01/01 08:39:10;;;;;;;;;;;;;;;16.47;100.00;98795.31;5073817;28;19923;-39
2023/01/01 08:41:35;;;;;;;;;;;;;;;16.51;100.00;98808.94;5071590;28;19926;-40
2023/01/01 08:44:00;;;;;;;;;;;;;;;16.55;100.00;98807.84;5072978;28;19920;-39
2023/01/01 08:46:26;;;;;;;;;;;;;;;17.10;100.00;98796.72;5073759;28;19998;-39
2023/01/01 08:48:51;;;;;;;;;;;;;;;16.87;100.00;98786.91;5073560;28;19920;-39
2023/01/01 08:51:16;;;;;;;;;;;;;;;17.37;100.00;98790.72;5073927;28;19973;-40
2023/01/01 08:53:41;;;;;;;;;;;;;;;16.51;100.00;98807.22;5073029;28;20491;-39
2023/01/01 08:56:08;;;;;;;;;;;;;;;17.09;100.00;98797.66;5071971;28;20306;-39
2023/01/01 08:58:37;;;;;;;;;;;;;;;17.06;100.00;98792.66;5070722;28;19983;-39
2023/01/01 09:01:02;;;;;;;;;;;;;;;16.83;100.00;98798.41;5075088;28;19982;-39
2023/01/01 09:03:28;;;;;;;;;;;;;;;16.82;100.00;98822.75;5075408;28;19931;-39
2023/01/01 09:05:53;;;;;;;;;;;;;;;17.10;100.00;98801.09;5072350;28;20364;-39
2023/01/01 09:08:19;;;;;;;;;;;;;;;17.37;100.00;98808.13;5072642;28;19920;-39
2023/01/01 09:10:44;;;;;;;;;;;;;;;16.85;100.00;98797.38;5075201;28;20011;-39
2023/01/01 09:13:10;;;;;;;;;;;;;;;16.92;100.00;98822.13;5072740;28;19928;-39
2023/01/01 09:15:35;;;;;;;;;;;;;;;17.13;100.00;98825.16;5074116;28;20021;-39
2023/01/01 09:18:00;;;;;;;;;;;;;;;16.86;100.00;98832.06;5074457;28;19942;-39
2023/01/01 09:20:26;;;;;;;;;;;;;;;16.64;100.00;98848.06;5072845;28;19921;-39
2023/01/01 09:22:51;;;;;;;;;;;;;;;16.37;100.00;98856.56;5072275;28;19919;-39
2023/01/01 09:25:16;;;;;;;;;;;;;;;16.36;100.00;98856.66;5071717;28;19920;-39
2023/01/01 09:27:41;;;;;;;;;;;;;;;16.85;100.00;98871.97;5073633;28;20337;-39
2023/01/01 09:30:07;;;;;;;;;;;;;;;17.43;100.00;98855.44;5071597;28;19921;-39
2023/01/01 09:32:32;;;;;;;;;;;;;;;17.04;100.00;98851.75;5074278;28;20011;-39
2023/01/01 09:34:59;;;;;;;;;;;;;;;16.51;100.00;98866.13;5071808;28;19920;-39
2023/01/01 09:37:24;;;;;;;;;;;;;;;16.66;100.00;98878.25;5073097;28;19916;-39
2023/01/01 09:39:50;;;;;;;;;;;;;;;16.81;100.00;98886.09;5071110;28;19920;-39
2023/01/01 09:42:18;;;;;;;;;;;;;;;17.06;100.00;98899.31;5071326;28;19920;-39
2023/01/01 09:44:52;;;;;;;;;;;;;;;17.00;100.00;98885.84;5075322;28;20030;-39
2023/01/01 09:47:25;;;;;;;;;;;;;;;16.49;100.00;98901.81;5070991;28;20555;-39
2023/01/01 09:49:50;;;;;;;;;;;;;;;17.24;100.00;98893.91;5071150;28;19985;-39
2023/01/01 09:52:16;;;;;;;;;;;;;;;17.19;100.00;98872.56;5073037;28;19924;-39
2023/01/01 09:54:52;;;;;;;;;;;;;;;16.73;100.00;98889.13;5071870;28;19939;-39
2023/01/01 09:57:18;;;;;;;;;;;;;;;17.14;100.00;98888.44;5072271;28;19918;-39
2023/01/01 09:59:43;;;;;;;;;;;;;;;16.92;100.00;98883.69;5069928;28;20415;-39
2023/01/01 10:02:11;;;;;;;;;;;;;;;17.21;100.00;98874.13;5069681;28;19985;-39
2023/01/01 10:04:49;;;;;;;;;;;;;;;16.64;100.00;98874.91;5072468;28;19951;-39
2023/01/01 10:07:27;;;;;;;;;;;;;;;17.39;100.00;98887.78;5069094;28;19917;-39
2023/01/01 10:10:07;;;;;;;;;;;;;;;17.64;100.00;98887.09;5071011;28;19978;-39
2023/01/01 10:12:32;;;;;;;;;;;;;;;16.95;100.00;98888.72;5070947;28;19928;-39
2023/01/01 10:15:09;;;;;;;;;;;;;;;17.31;100.00;98895.22;5071537;28;20479;-39
2023/01/01 10:17:37;;;;;;;;;;;;;;;17.48;100.00;98876.78;5072427;28;19921;-39
2023/01/01 10:20:04;;;;;;;;;;;;;;;17.17;100.00;98877.00;5069823;28;20400;-39
2023/01/01 10:22:34;;;;;;;;;;;;;;;17.35;100.00;98871.50;5072019;28;20305;-39
2023/01/01 10:25:06;;;;;;;;;;;;;;;17.14;100.00;98889.28;5069451;28;19920;-39
2023/01/01 10:27:39;;;;;;;;;;;;;;;17.03;100.00;98891.69;5072377;28;19916;-40
2023/01/01 10:30:12;;;;;;;;;;;;;;;17.05;100.00;98894.22;5070731;28;19958;-39
2023/01/01 10:32:39;;;;;;;;;;;;;;;17.64;100.00;98878.44;5071739;28;19924;-39
2023/01/01 10:35:30;;;;;;;;;;;;;;;17.64;100.00;98881.06;5069629;28;20276;-39
2023/01/01 10:37:55;;;;;;;;;;;;;;;16.56;100.00;98887.53;5071735;28;19973;-39
2023/01/01 10:40:21;;;;;;;;;;;;;;;17.46;100.00;98888.25;5068157;28;19952;-39
2023/01/01 10:42:48;;;;;;;;;;;;;;;16.82;100.00;98893.00;5063139;28;20449;-39
2023/01/01 10:45:14;;;;;;;;;;;;;;;17.67;100.00;98865.22;5070444;28;20500;-40
2023/01/01 10:47:39;;;;;;;;;;;;;;;17.55;100.00;98867.66;5072903;28;19920;-40
2023/01/01 10:50:08;;;;;;;;;;;;;;;17.61;100.00;98871.66;5069735;28;20327;-39
2023/01/01 10:52:37;;;;;;;;;;;;;;;17.02;100.00;98886.59;5073171;28;20477;-39
2023/01/01 10:55:04;;;;;;;;;;;;;;;17.84;100.00;98872.84;5071572;28;20236;-39
2023/01/01 10:57:31;;;;;;;;;;;;;;;17.23;100.00;98876.66;5072546;28;20431;-39
2023/01/01 11:00:28;;;;;;;;;;;;;;;17.41;100.00;98877.28;5069899;28;19930;-39
2023/01/01 11:03:05;;;;;;;;;;;;;;;17.00;100.00;98891.88;5039581;28;19925;-39
2023/01/01 11:05:30;;;;;;;;;;;;;;;16.90;100.00;98898.56;5070599;28;19931;-39
2023/01/01 11:07:55;;;;;;;;;;;;;;;16.80;100.00;98884.44;5068208;28;19912;-39
2023/01/01 11:10:21;;;;;;;;;;;;;;;16.93;100.00;98886.22;5071263;28;19912;-39
2023/01/01 11:12:47;;;;;;;;;;;;;;;17.05;100.00;98883.81;5067288;28;20304;-39
2023/01/01 11:15:20;;;;;;;;;;;;;;;17.34;100.00;98874.22;5070954;28;19924;-39
2023/01/01 11:17:45;;;;;;;;;;;;;;;17.55;100.00;98872.88;5070263;28;19930;-40
2023/01/01 11:20:15;;;;;;;;;;;;;;;17.13;100.00;98874.59;5061612;28;20426;-39
2023/01/01 11:22:41;;;;;;;;;;;;;;;17.46;100.00;98862.19;5069830;28;20376;-40
2023/01/01 11:25:17;;;;;;;;;;;;;;;17.34;100.00;98850.78;5068173;28;20483;-39
2023/01/01 11:27:43;;;;;;;;;;;;;;;17.42;100.00;98840.72;5071693;28;19942;-39
2023/01/01 11:30:17;;;;;;;;;;;;;;;17.43;100.00;98841.56;5068194;28;20361;-40
2023/01/01 11:32:42;;;;;;;;;;;;;;;17.38;100.00;98860.09;5069251;28;19989;-39
2023/01/01 11:35:14;;;;;;;;;;;;;;;16.85;100.00;98866.78;5071252;28;19924;-39
2023/01/01 11:37:40;;;;;;;;;;;;;;;17.42;100.00;98863.31;5074040;28;19936;-39
2023/01/01 11:40:06;;;;;;;;;;;;;;;17.45;100.00;98866.59;5067962;28;19951;-39
2023/01/01 11:42:34;;;;;;;;;;;;;;;17.88;100.00;98863.03;5066574;28;19952;-39
2023/01/01 11:45:18;;;;;;;;;;;;;;;17.76;100.00;98867.25;5067795;28;21050;-40
2023/01/01 11:47:43;;;;;;;;;;;;;;;17.29;100.00;98910.13;5070492;28;20361;-39
2023/01/01 11:50:20;;;;;;;;;;;;;;;17.08;100.00;98931.31;5067312;28;19928;-39
2023/01/01 11:52:47;;;;;;;;;;;;;;;17.16;100.00;98920.41;5072473;28;20380;-39
2023/01/01 11:55:17;;;;;;;;;;;;;;;17.68;100.00;98924.19;5070984;28;19920;-39
2023/01/01 11:58:02;;;;;;;;;;;;;;;17.38;100.00;98919.97;5071287;28;20051;-39
2023/01/01 12:00:28;;;;;;;;;;;;;;;16.78;100.00;98938.28;5068822;28;19924;-39
2023/01/01 12:03:05;;;;;;;;;;;;;;;16.91;100.00;98955.69;5068166;28;19924;-39
2023/01/01 12:05:37;;;;;;;;;;;;;;;16.87;100.00;98948.16;5067994;28;19924;-39
2023/01/01 12:08:03;;;;;;;;;;;;;;;17.15;100.00;98910.91;5059189;28;19924;-39
2023/01/01 12:10:30;;;;;;;;;;;;;;;16.84;100.00;98933.56;5069731;28;19931;-40
2023/01/01 12:13:05;;;;;;;;;;;;;;;17.43;100.00;98946.53;5069496;28;19919;-40
2023/01/01 12:15:37;;;;;;;;;;;;;;;17.04;100.00;98966.22;5072075;28;19925;-40
2023/01/01 12:18:17;;;;;;;;;;;;;;;17.43;100.00;98941.34;5064475;28;20074;-40
2023/01/01 12:20:45;;;;;;;;;;;;;;;16.49;100.00;98946.00;5073121;28;19924;-40
2023/01/01 12:23:10;;;;;;;;;;;;;;;17.04;100.00;98950.63;5074171;28;19943;-40
2023/01/01 12:25:38;;;;;;;;;;;;;;;16.81;100.00;98943.31;5073289;28;20349;-40
2023/01/01 12:28:18;;;;;;;;;;;;;;;17.26;100.00;98951.94;5070015;28;20374;-40
2023/01/01 12:30:48;;;;;;;;;;;;;;;17.32;100.00;98943.75;5072741;28;21040;-40
2023/01/01 12:33:13;;;;;;;;;;;;;;;17.01;100.00;98940.38;5073093;28;19928;-40
2023/01/01 12:35:43;;;;;;;;;;;;;;;17.35;100.00;98933.16;5073397;28;19923;-40
2023/01/01 12:38:27;;;;;;;;;;;;;;;16.96;100.00;98926.81;5052377;28;19943;-40
2023/01/01 12:40:58;;;;;;;;;;;;;;;18.04;100.00;98896.75;5071813;28;19974;-40
2023/01/01 12:43:32;;;;;;;;;;;;;;;17.10;100.00;98907.78;5072501;28;19920;-40
2023/01/01 12:46:09;;;;;;;;;;;;;;;17.13;100.00;98918.84;5070741;28;19931;-40